Charter Quote
Worldwide +1-877-727-2538 Call
Select Language Lang
SAFETY RELIABILITY EXPERIENCE

Private Jet Charter Services - Dali (ZPDL)

Paramount Business Jets offers private jet charter flights and luxury airliner charters to and from Dali.

AIRPORT INFORMATION
ICAOZPDL
IATADLU
LOCATIONDali, China
FACILITY TYPEAIRPORT

At Paramount Business Jets you can hire chartered private jets to and from Dali with as little as 4 hours of notice. All flights booked via Paramount Business Jets are operated by certified direct air carriers that meet and exceed the FAA part 135 and 121 protocol or a foreign equivalent safety authority. Furthermore, Paramount Business Jets subscribes to ARGUS for their third party safety checks of operators, aircraft, and crews prior each and every flight to and from Dali and worldwide.

  • Quote a trip using Dali or call us 24/7 - 365 days a year at +1-877-727-2538.
Questions? Call +1-877-727-2538

METAR Weather Data at Dali, ZPDL, DLU

STATIONZPDL
OBSERVEDMon Oct 21, 19:00 UTC
NOWWed Sep 18, 14:11 UTC
AGE51787:11 hr ago
WINDS at 13 mph
VISIBILITY16 miles
METARZPDL 211900Z AUTO 17006MPS 9999 ///////// 14/12 Q1023

Call us on +1-877-727-2538 (24 Hours) to Hire a Private Jet or Get a Quick Quote.

Find Airports Near any Location

Processing
...